createdAt,value
2022-10-18T00:02:32.042Z,91.99
2022-10-18T00:05:16.358Z,92.17
2022-10-18T00:08:18.289Z,92.19
2022-10-18T00:11:07.833Z,92.06
2022-10-18T00:14:03.733Z,92.08
2022-10-18T00:16:58.788Z,92.39
2022-10-18T00:19:33.531Z,92.12
2022-10-18T00:22:30.544Z,91.95
2022-10-18T00:25:22.392Z,91.87
2022-10-18T00:27:58.612Z,91.87
2022-10-18T00:30:34.500Z,92.30
2022-10-18T00:33:10.361Z,92.15
2022-10-18T00:35:47.727Z,92.19
2022-10-18T00:38:31.980Z,91.94
2022-10-18T00:41:35.771Z,92.14
2022-10-18T00:44:11.074Z,91.87
2022-10-18T00:46:58.393Z,92.06
2022-10-18T00:49:43.604Z,91.86
2022-10-18T00:52:53.909Z,92.04
2022-10-18T00:55:34.373Z,91.97
2022-10-18T00:58:18.024Z,91.74
2022-10-18T01:00:56.824Z,92.48
2022-10-18T01:03:29.936Z,91.99
2022-10-18T01:06:03.681Z,92.15
2022-10-18T01:09:07.905Z,92.23
2022-10-18T01:12:39.658Z,92.28
2022-10-18T01:16:00.338Z,92.16
2022-10-18T01:18:58.752Z,92.03
2022-10-18T01:21:52.828Z,91.96
2022-10-18T01:24:56.551Z,91.80
2022-10-18T01:28:30.227Z,91.81
2022-10-18T01:31:35.932Z,92.08
2022-10-18T01:34:16.610Z,92.16
2022-10-18T01:36:58.659Z,91.94
2022-10-18T01:39:42.485Z,92.28
2022-10-18T01:42:40.056Z,91.76
2022-10-18T01:45:56.956Z,92.14
2022-10-18T01:48:42.646Z,91.79
2022-10-18T01:51:41.708Z,91.97
2022-10-18T01:54:42.522Z,92.04
2022-10-18T01:57:32.438Z,92.10
2022-10-18T02:00:35.862Z,92.10
2022-10-18T02:03:23.755Z,92.23
2022-10-18T02:06:29.010Z,91.89
2022-10-18T02:09:19.985Z,92.20
2022-10-18T02:11:56.421Z,92.51
2022-10-18T02:14:37.110Z,92.13
2022-10-18T02:17:19.315Z,92.13
2022-10-18T02:20:10.563Z,92.44
2022-10-18T02:23:07.982Z,92.29
2022-10-18T02:25:45.194Z,92.26
2022-10-18T02:28:29.287Z,92.31
2022-10-18T02:32:11.786Z,92.57
2022-10-18T02:35:24.039Z,92.30
2022-10-18T02:38:23.511Z,92.11
2022-10-18T02:41:20.968Z,92.26
2022-10-18T02:44:49.616Z,92.21
2022-10-18T02:47:32.287Z,92.17
2022-10-18T02:50:10.116Z,92.30
2022-10-18T02:52:44.910Z,92.78
2022-10-18T02:55:21.539Z,92.73
2022-10-18T02:57:57.071Z,92.72
2022-10-18T03:00:35.227Z,93.14
2022-10-18T03:03:07.976Z,93.35
2022-10-18T03:05:42.306Z,92.97
2022-10-18T03:08:18.513Z,93.06
2022-10-18T03:10:53.138Z,92.92
2022-10-18T03:13:37.959Z,92.70
2022-10-18T03:16:42.591Z,93.22
2022-10-18T03:19:31.261Z,93.29
2022-10-18T03:22:20.803Z,93.07
2022-10-18T03:24:59.644Z,93.35
2022-10-18T03:27:48.671Z,93.33
2022-10-18T03:30:29.141Z,93.66
2022-10-18T03:35:53.364Z,94.06
2022-10-18T03:38:26.368Z,94.46
2022-10-18T03:41:09.922Z,94.21
2022-10-18T03:43:49.485Z,93.64
2022-10-18T03:46:37.361Z,93.34
2022-10-18T03:49:20.202Z,93.83
2022-10-18T03:51:53.113Z,93.89
2022-10-18T03:54:31.419Z,93.38
2022-10-18T03:57:07.295Z,93.37
2022-10-18T03:59:42.435Z,93.29
2022-10-18T04:02:25.859Z,93.35
2022-10-18T04:05:02.313Z,93.38
2022-10-18T04:07:41.897Z,93.56
2022-10-18T04:10:20.139Z,94.06
2022-10-18T04:13:03.021Z,93.56
2022-10-18T04:15:40.458Z,94.02
2022-10-18T04:18:15.645Z,93.50
2022-10-18T04:20:49.779Z,93.35
2022-10-18T04:23:25.627Z,92.88
2022-10-18T04:26:04.462Z,93.22
2022-10-18T04:28:48.832Z,93.39
2022-10-18T04:31:31.496Z,93.31
2022-10-18T04:34:37.773Z,93.24
2022-10-18T04:37:21.747Z,93.32
2022-10-18T04:40:12.977Z,93.25
2022-10-18T04:42:53.706Z,93.44
2022-10-18T04:45:39.111Z,93.41
2022-10-18T04:48:17.694Z,93.92
2022-10-18T04:50:52.683Z,94.02
2022-10-18T04:53:31.079Z,93.79
2022-10-18T04:56:03.798Z,93.64
2022-10-18T04:58:36.768Z,93.59
2022-10-18T05:01:09.378Z,93.70
2022-10-18T05:03:42.060Z,93.75
2022-10-18T05:06:14.770Z,93.70
2022-10-18T05:08:51.268Z,93.70
2022-10-18T05:11:33.491Z,93.43
2022-10-18T05:14:08.185Z,93.68
2022-10-18T05:16:43.862Z,93.61
2022-10-18T05:19:16.511Z,93.55
2022-10-18T05:21:49.312Z,93.89
2022-10-18T05:24:24.220Z,94.46
2022-10-18T05:27:00.356Z,94.19
2022-10-18T05:29:33.238Z,94.50
2022-10-18T05:32:05.939Z,94.16
2022-10-18T05:34:38.699Z,94.56
2022-10-18T05:37:13.989Z,94.91
2022-10-18T05:39:57.792Z,95.44
2022-10-18T05:42:30.794Z,95.41
2022-10-18T05:45:04.365Z,95.29
2022-10-18T05:47:37.160Z,95.12
2022-10-18T05:50:10.318Z,94.94
2022-10-18T05:52:43.019Z,95.12
2022-10-18T05:55:16.104Z,95.07
2022-10-18T05:57:54.401Z,95.14
2022-10-18T06:00:31.254Z,95.81
2022-10-18T06:03:06.537Z,95.84
2022-10-18T06:05:41.822Z,95.75
2022-10-18T06:08:20.738Z,95.59
2022-10-18T06:10:53.503Z,95.58
2022-10-18T06:13:26.465Z,95.95
2022-10-18T06:15:59.296Z,95.41
2022-10-18T06:18:31.923Z,95.18
2022-10-18T06:21:05.222Z,94.98
2022-10-18T06:23:38.071Z,94.98
2022-10-18T06:26:18.021Z,95.13
2022-10-18T06:28:51.440Z,94.98
2022-10-18T06:31:25.667Z,95.16
2022-10-18T06:34:03.833Z,94.47
2022-10-18T06:36:40.475Z,95.07
2022-10-18T06:39:13.206Z,94.88
2022-10-18T06:41:46.010Z,94.75
2022-10-18T06:44:21.821Z,94.85
2022-10-18T06:46:56.687Z,94.96
2022-10-18T06:49:29.249Z,94.72
2022-10-18T06:52:02.042Z,95.02
2022-10-18T06:54:37.841Z,94.71
2022-10-18T06:57:10.415Z,95.08
2022-10-18T06:59:43.477Z,94.70
2022-10-18T07:02:19.914Z,94.68
2022-10-18T07:04:52.489Z,94.79
2022-10-18T07:07:25.153Z,94.98
2022-10-18T07:09:59.143Z,94.63
2022-10-18T07:12:33.233Z,94.53
2022-10-18T07:15:09.400Z,94.50
2022-10-18T07:17:43.657Z,94.49
2022-10-18T07:20:16.732Z,95.10
2022-10-18T07:22:49.381Z,94.87
2022-10-18T07:25:23.877Z,94.21
2022-10-18T07:27:58.553Z,94.42
2022-10-18T07:30:31.212Z,94.17
2022-10-18T07:33:06.299Z,94.97
2022-10-18T07:35:38.974Z,94.36
2022-10-18T07:38:14.158Z,94.63
2022-10-18T07:41:07.416Z,95.45
2022-10-18T07:43:50.979Z,94.58
2022-10-18T07:46:23.636Z,94.14
2022-10-18T07:48:58.331Z,93.82
2022-10-18T07:51:33.972Z,93.55
2022-10-18T07:54:06.764Z,94.52
2022-10-18T07:56:39.478Z,93.51
2022-10-18T07:59:14.535Z,94.08
2022-10-18T08:01:58.184Z,93.56
2022-10-18T08:04:32.810Z,93.84
2022-10-18T08:07:09.739Z,93.17
2022-10-18T08:09:45.553Z,93.02
2022-10-18T08:12:24.818Z,92.81
2022-10-18T08:15:00.647Z,91.90
2022-10-18T08:17:37.025Z,91.62
2022-10-18T08:20:30.398Z,91.00
2022-10-18T08:23:11.338Z,90.21
2022-10-18T08:25:46.939Z,89.90
2022-10-18T08:28:29.908Z,89.09
2022-10-18T08:31:08.342Z,89.06
2022-10-18T08:33:42.984Z,89.05
2022-10-18T08:36:17.527Z,88.82
2022-10-18T08:38:52.937Z,88.85
2022-10-18T08:42:01.922Z,87.62
2022-10-18T08:44:49.778Z,87.39
2022-10-18T08:47:43.910Z,87.30
2022-10-18T08:50:46.952Z,87.06
2022-10-18T08:53:29.900Z,86.50
2022-10-18T08:56:21.679Z,86.83
2022-10-18T08:59:00.611Z,86.22
2022-10-18T09:02:08.370Z,86.43
2022-10-18T09:05:06.334Z,85.95
2022-10-18T09:08:25.880Z,85.10
2022-10-18T09:11:40.401Z,85.05
2022-10-18T09:14:25.205Z,84.95
2022-10-18T09:17:33.811Z,83.57
2022-10-18T09:20:22.917Z,83.24
2022-10-18T09:23:06.734Z,83.40
2022-10-18T09:26:20.543Z,84.45
2022-10-18T09:29:23.075Z,83.86
2022-10-18T09:32:19.343Z,84.18
2022-10-18T09:35:15.170Z,84.50
2022-10-18T09:37:52.337Z,84.24
2022-10-18T09:40:32.494Z,84.40
2022-10-18T09:43:22.919Z,83.93
2022-10-18T09:45:57.511Z,83.81
2022-10-18T09:48:49.361Z,83.13
2022-10-18T09:51:29.553Z,82.52
2022-10-18T09:54:19.192Z,83.19
2022-10-18T09:57:10.049Z,81.87
2022-10-18T09:59:45.813Z,80.72
2022-10-18T10:02:23.794Z,80.79
2022-10-18T10:04:57.096Z,80.79
2022-10-18T10:07:41.297Z,80.60
2022-10-18T10:10:25.266Z,79.69
2022-10-18T10:13:22.086Z,79.53
2022-10-18T10:16:03.287Z,79.19
2022-10-18T10:18:43.494Z,79.23
2022-10-18T10:21:17.463Z,79.64
2022-10-18T10:24:02.052Z,79.64
2022-10-18T10:26:41.681Z,78.78
2022-10-18T10:29:51.493Z,78.18
2022-10-18T10:32:30.748Z,77.44
2022-10-18T10:35:52.549Z,78.04
2022-10-18T10:38:29.309Z,77.51
2022-10-18T10:41:03.267Z,77.30
2022-10-18T10:43:40.093Z,77.13
2022-10-18T10:46:19.145Z,73.88
2022-10-18T10:49:27.889Z,75.08
2022-10-18T10:52:09.293Z,75.36
2022-10-18T10:57:52.809Z,72.79
2022-10-18T11:00:45.097Z,72.39
2022-10-18T11:03:28.968Z,70.24
2022-10-18T11:06:02.390Z,71.18
2022-10-18T11:08:43.558Z,72.00
2022-10-18T11:11:30.714Z,69.56
2022-10-18T11:14:26.292Z,70.47
2022-10-18T11:17:39.705Z,68.56
2022-10-18T11:20:32.938Z,68.80
2022-10-18T11:23:17.383Z,69.27
2022-10-18T11:26:11.495Z,67.43
2022-10-18T11:29:26.053Z,69.50
2022-10-18T11:32:12.112Z,67.16
2022-10-18T11:34:54.171Z,66.28
2022-10-18T11:38:14.266Z,67.41
2022-10-18T11:41:23.983Z,65.87
2022-10-18T11:44:04.409Z,64.75
2022-10-18T11:47:16.651Z,64.89
2022-10-18T11:50:08.672Z,59.78
2022-10-18T11:53:06.678Z,62.69
2022-10-18T11:56:30.165Z,63.41
2022-10-18T11:59:27.741Z,63.60
2022-10-18T12:02:42.073Z,63.62
2022-10-18T12:05:24.085Z,63.22
2022-10-18T12:08:07.103Z,63.80
2022-10-18T12:11:04.144Z,65.06
2022-10-18T12:13:51.210Z,62.99
2022-10-18T12:16:50.018Z,61.86
2022-10-18T12:19:28.394Z,63.21
2022-10-18T12:22:20.003Z,63.04
2022-10-18T12:24:52.733Z,61.17
2022-10-18T12:27:56.635Z,61.11
2022-10-18T12:30:54.357Z,61.32
2022-10-18T12:33:36.087Z,62.17
2022-10-18T12:36:20.814Z,61.50
2022-10-18T12:39:07.033Z,62.18
2022-10-18T12:41:39.776Z,61.67
2022-10-18T12:44:31.481Z,61.66
2022-10-18T12:47:06.628Z,60.80
2022-10-18T12:49:42.603Z,61.86
2022-10-18T12:52:24.911Z,61.57
2022-10-18T12:55:18.198Z,62.92
2022-10-18T12:57:53.621Z,63.25
2022-10-18T13:00:32.195Z,62.97
2022-10-18T13:03:14.222Z,62.79
2022-10-18T13:05:54.430Z,61.76
2022-10-18T13:08:27.795Z,61.14
2022-10-18T13:11:12.262Z,61.04
2022-10-18T13:14:17.294Z,59.88
2022-10-18T13:16:57.010Z,59.66
2022-10-18T13:19:38.043Z,60.81
2022-10-18T13:22:31.359Z,60.70
2022-10-18T13:25:33.107Z,60.38
2022-10-18T13:28:31.633Z,60.65
2022-10-18T13:31:39.506Z,62.00
2022-10-18T13:34:30.953Z,60.56
2022-10-18T13:37:20.703Z,60.28
2022-10-18T13:40:24.393Z,62.23
2022-10-18T13:42:57.064Z,58.28
2022-10-18T13:45:32.648Z,57.55
2022-10-18T13:48:30.242Z,55.30
2022-10-18T13:52:03.410Z,57.11
2022-10-18T13:55:15.975Z,56.41
2022-10-18T13:58:08.482Z,56.69
2022-10-18T14:00:49.462Z,56.52
2022-10-18T14:03:56.314Z,56.89
2022-10-18T14:06:43.145Z,57.08
2022-10-18T14:09:40.257Z,57.28
2022-10-18T14:12:44.115Z,54.16
2022-10-18T14:15:42.021Z,55.93
2022-10-18T14:18:31.778Z,55.25
2022-10-18T14:21:21.842Z,56.35
2022-10-18T14:23:55.259Z,55.96
2022-10-18T14:26:29.303Z,56.40
2022-10-18T14:29:16.192Z,56.58
2022-10-18T14:31:54.546Z,56.09
2022-10-18T14:34:27.115Z,56.32
2022-10-18T14:37:07.257Z,55.74
2022-10-18T14:39:51.399Z,57.46
2022-10-18T14:42:32.211Z,57.58
2022-10-18T14:45:22.978Z,57.04
2022-10-18T14:48:14.696Z,55.82
2022-10-18T14:51:00.129Z,55.54
2022-10-18T14:53:38.876Z,55.22
2022-10-18T14:56:25.482Z,55.20
2022-10-18T14:59:03.651Z,54.57
2022-10-18T15:01:36.623Z,54.35
2022-10-18T15:04:12.019Z,54.69
2022-10-18T15:06:45.061Z,55.82
2022-10-18T15:09:24.089Z,56.30
2022-10-18T15:11:57.993Z,55.57
2022-10-18T15:14:31.597Z,55.82
2022-10-18T15:17:25.124Z,55.40
2022-10-18T15:20:25.178Z,55.72
2022-10-18T15:23:33.276Z,55.80
2022-10-18T15:26:12.604Z,54.88
2022-10-18T15:28:54.051Z,54.90
2022-10-18T15:31:32.133Z,55.61
2022-10-18T15:34:30.770Z,55.90
2022-10-18T15:37:18.398Z,55.99
2022-10-18T15:40:32.909Z,56.75
2022-10-18T15:43:28.224Z,57.15
2022-10-18T15:46:06.702Z,57.86
2022-10-18T15:48:41.614Z,57.85
2022-10-18T15:51:48.300Z,57.62
2022-10-18T15:54:32.427Z,57.87
2022-10-18T15:57:11.562Z,57.68
2022-10-18T16:00:20.513Z,58.74
2022-10-18T16:02:53.055Z,61.02
2022-10-18T16:05:28.272Z,59.52
2022-10-18T16:08:01.044Z,58.57
2022-10-18T16:10:33.735Z,58.97
2022-10-18T16:13:06.696Z,59.41
2022-10-18T16:15:39.410Z,59.35
2022-10-18T16:18:19.284Z,58.94
2022-10-18T16:20:53.226Z,59.76
2022-10-18T16:23:31.143Z,61.27
2022-10-18T16:26:03.829Z,62.31
2022-10-18T16:28:36.614Z,63.09
2022-10-18T16:33:50.534Z,65.04
2022-10-18T16:36:26.973Z,64.75
2022-10-18T16:39:04.695Z,66.17
2022-10-18T16:41:37.264Z,65.75
2022-10-18T16:44:10.003Z,67.57
2022-10-18T16:46:42.834Z,68.96
2022-10-18T16:49:24.310Z,70.94
2022-10-18T16:51:57.511Z,71.90
2022-10-18T16:54:30.139Z,73.26
2022-10-18T16:57:02.682Z,73.73
2022-10-18T16:59:35.177Z,74.79
2022-10-18T17:02:09.384Z,75.43
2022-10-18T17:04:42.044Z,76.52
2022-10-18T17:07:25.534Z,77.16
2022-10-18T17:09:58.075Z,77.56
2022-10-18T17:12:30.707Z,77.95
2022-10-18T17:15:04.226Z,78.75
2022-10-18T17:17:38.140Z,78.95
2022-10-18T17:20:21.184Z,78.80
2022-10-18T17:22:54.238Z,79.05
2022-10-18T17:25:26.791Z,79.95
2022-10-18T17:27:59.297Z,80.28
2022-10-18T17:30:32.812Z,80.16
2022-10-18T17:33:08.554Z,81.11
2022-10-18T17:35:43.231Z,81.47
2022-10-18T17:38:15.911Z,81.46
2022-10-18T17:40:48.385Z,82.06
2022-10-18T17:43:20.981Z,82.45
2022-10-18T17:45:56.762Z,82.10
2022-10-18T17:48:29.491Z,82.85
2022-10-18T17:51:11.057Z,82.50
2022-10-18T17:53:44.121Z,81.42
2022-10-18T17:56:16.754Z,82.03
2022-10-18T17:58:52.824Z,82.49
2022-10-18T18:01:25.650Z,81.46
2022-10-18T18:04:01.366Z,82.20
2022-10-18T18:06:38.921Z,80.50
2022-10-18T18:09:15.097Z,81.75
2022-10-18T18:11:48.798Z,81.62
2022-10-18T18:14:21.601Z,81.63
2022-10-18T18:16:54.820Z,81.84
2022-10-18T18:19:27.633Z,82.29
2022-10-18T18:22:00.386Z,80.62
2022-10-18T18:24:33.404Z,81.39
2022-10-18T18:27:05.947Z,82.02
2022-10-18T18:29:38.538Z,81.94
2022-10-18T18:32:11.080Z,82.11
2022-10-18T18:34:43.711Z,82.45
2022-10-18T18:37:16.203Z,83.10
2022-10-18T18:39:48.949Z,83.01
2022-10-18T18:42:22.523Z,82.96
2022-10-18T18:44:55.115Z,81.82
2022-10-18T18:47:28.030Z,81.93
2022-10-18T18:50:02.417Z,81.89
2022-10-18T18:52:35.218Z,81.60
2022-10-18T18:55:08.826Z,82.23
2022-10-18T18:57:41.406Z,82.39
2022-10-18T19:00:14.922Z,82.75
2022-10-18T19:02:47.406Z,83.25
2022-10-18T19:05:20.078Z,83.34
2022-10-18T19:07:52.633Z,83.90
2022-10-18T19:10:26.061Z,84.30
2022-10-18T19:12:58.635Z,84.44
2022-10-18T19:15:31.277Z,84.64
2022-10-18T19:18:05.508Z,85.15
2022-10-18T19:20:38.037Z,85.43
2022-10-18T19:23:10.667Z,85.58
2022-10-18T19:25:43.208Z,85.45
2022-10-18T19:28:15.667Z,85.92
2022-10-18T19:30:50.218Z,85.68
2022-10-18T19:33:41.073Z,85.75
2022-10-18T19:36:15.605Z,86.46
2022-10-18T19:38:48.166Z,86.41
2022-10-18T19:41:21.566Z,86.53
2022-10-18T19:43:55.709Z,86.47
2022-10-18T19:46:28.430Z,86.47
2022-10-18T19:49:01.011Z,86.94
2022-10-18T19:51:33.690Z,87.24
2022-10-18T19:54:06.556Z,87.36
2022-10-18T19:56:39.469Z,87.20
2022-10-18T19:59:15.116Z,87.54
2022-10-18T20:01:47.689Z,87.90
2022-10-18T20:04:20.329Z,88.35
2022-10-18T20:06:52.817Z,88.56
2022-10-18T20:09:25.435Z,88.83
2022-10-18T20:11:58.584Z,88.71
2022-10-18T20:14:31.347Z,89.01
2022-10-18T20:17:05.735Z,88.79
2022-10-18T20:19:38.549Z,88.65
2022-10-18T20:22:11.071Z,88.99
2022-10-18T20:24:43.609Z,89.26
2022-10-18T20:27:16.344Z,89.54
2022-10-18T20:29:48.995Z,89.93
2022-10-18T20:32:21.509Z,89.85
2022-10-18T20:34:54.065Z,89.79
2022-10-18T20:37:26.586Z,90.04
2022-10-18T20:40:00.141Z,90.14
2022-10-18T20:42:32.650Z,90.12
2022-10-18T20:45:07.730Z,90.47
2022-10-18T20:47:40.322Z,90.37
2022-10-18T20:50:12.926Z,90.54
2022-10-18T20:52:50.997Z,90.65
2022-10-18T20:55:23.615Z,90.43
2022-10-18T20:57:56.162Z,90.63
2022-10-18T21:00:28.671Z,90.94
2022-10-18T21:03:01.518Z,91.23
2022-10-18T21:05:34.099Z,91.28
2022-10-18T21:08:06.608Z,91.24
2022-10-18T21:10:39.156Z,91.46
2022-10-18T21:13:11.680Z,92.03
2022-10-18T21:15:44.194Z,91.83
2022-10-18T21:18:16.713Z,91.72
2022-10-18T21:20:49.236Z,91.76
2022-10-18T21:23:22.603Z,92.04
2022-10-18T21:25:55.111Z,91.86
2022-10-18T21:28:27.776Z,92.13
2022-10-18T21:31:19.526Z,92.12
2022-10-18T21:34:00.736Z,91.82
2022-10-18T21:36:37.651Z,92.29
2022-10-18T21:39:18.836Z,92.34
2022-10-18T21:41:51.797Z,92.55
2022-10-18T21:44:24.355Z,92.44
2022-10-18T21:46:56.923Z,92.10
2022-10-18T21:49:30.251Z,92.32
2022-10-18T21:52:05.265Z,92.42
2022-10-18T21:54:37.977Z,92.44
2022-10-18T21:57:10.545Z,92.13
2022-10-18T21:59:43.410Z,92.34
2022-10-18T22:02:15.918Z,92.39
2022-10-18T22:04:49.605Z,92.20
2022-10-18T22:07:22.142Z,92.81
2022-10-18T22:09:54.657Z,92.82
2022-10-18T22:12:27.202Z,93.13
2022-10-18T22:15:00.299Z,93.02
2022-10-18T22:17:33.167Z,92.95
2022-10-18T22:20:06.761Z,92.62
2022-10-18T22:22:39.341Z,92.78
2022-10-18T22:25:11.923Z,92.66
2022-10-18T22:27:44.411Z,92.74
2022-10-18T22:30:17.049Z,93.01
2022-10-18T22:32:49.611Z,93.06
2022-10-18T22:35:22.427Z,92.86
2022-10-18T22:37:54.894Z,93.19
2022-10-18T22:40:27.864Z,93.00
2022-10-18T22:43:00.414Z,92.67
2022-10-18T22:45:33.011Z,93.08
2022-10-18T22:48:06.264Z,92.74
2022-10-18T22:50:38.769Z,93.04
2022-10-18T22:53:11.330Z,93.01
2022-10-18T22:55:43.798Z,93.19
2022-10-18T22:58:16.522Z,93.38
2022-10-18T23:00:49.346Z,93.33
2022-10-18T23:03:21.856Z,93.01
2022-10-18T23:05:57.971Z,93.35
2022-10-18T23:08:31.186Z,93.26
2022-10-18T23:11:03.665Z,93.28
2022-10-18T23:13:38.832Z,93.03
2022-10-18T23:16:12.678Z,93.56
2022-10-18T23:18:51.691Z,93.49
2022-10-18T23:21:27.934Z,92.94
2022-10-18T23:24:00.480Z,93.17
2022-10-18T23:26:33.409Z,93.57
2022-10-18T23:29:06.016Z,93.08
2022-10-18T23:31:38.875Z,93.42
2022-10-18T23:34:11.502Z,93.18
2022-10-18T23:39:21.691Z,93.70
2022-10-18T23:41:54.227Z,93.06
2022-10-18T23:44:26.783Z,93.62
2022-10-18T23:46:59.323Z,93.08
2022-10-18T23:49:31.890Z,93.63
2022-10-18T23:52:04.546Z,93.47
2022-10-18T23:54:37.093Z,93.70
2022-10-18T23:57:09.606Z,93.82
2022-10-18T23:59:42.226Z,93.88
